Weather Search – Historical Data

Quick picks

Today Yesterday Last 7 days Last 30 days This month Last month Last year (same date) All of last year

Custom search

Database contains data from 2013-07-07 to 2026-09-01.

Tuesday September 1, 2026

92 measurements (5-min interval)

Max temperature
11,4 Β°C
00:00
Min temperature
9,1 Β°C
05:25
Avg temperature
10,0 Β°C
Total rainfall
0,0 mm
Max wind gust
1,8 m/s
NW Β· 00:20
Avg wind
0,1 m/s
Avg humidity
94 %
Avg pressure
1 007 hPa
Max UV index
0,0
00:00
Max solar radiation
45 W/mΒ²
07:20
Avg radiation (daytime)
27 W/mΒ²

Charts

Temperature and dew point
Wind and gusts
Wind rose Β· prevailing: NNW
Rainfall
Humidity
Air pressure
UV and solar radiation

Detailed data

TimeTemp Β°CDew Β°C Humid %Wind m/sGust m/s Dir Β°Rain mmPress. hPa UVSolar W/mΒ²
00:00 11,49,6 890,0 0,0– 0,001 006,0 0,00
00:05 11,49,6 890,0 0,0– 0,001 006,0 0,00
00:10 11,29,5 890,0 0,0– 0,001 006,0 0,00
00:15 11,29,4 890,0 0,9– 0,001 006,1 0,00
00:20 11,19,5 900,9 1,8315 0,001 006,1 0,00
00:25 11,29,6 900,9 1,3315 0,001 006,1 0,00
00:30 11,39,7 900,0 1,3– 0,001 006,1 0,00
00:35 11,29,6 900,0 0,0– 0,001 006,1 0,00
00:40 11,39,9 910,0 0,0– 0,001 006,1 0,00
00:45 11,39,9 910,0 0,0– 0,001 006,2 0,00
00:50 11,39,9 910,0 0,0– 0,001 006,2 0,00
00:55 11,39,9 910,0 0,0– 0,001 006,2 0,00
01:00 11,19,9 920,0 0,0– 0,001 006,2 0,00
01:05 11,29,9 920,0 0,0– 0,001 006,2 0,00
01:10 11,19,9 920,0 0,0– 0,001 006,2 0,00
01:15 11,19,9 920,0 0,0– 0,001 006,2 0,00
01:20 11,09,7 920,0 0,0– 0,001 006,2 0,00
01:25 10,89,6 920,0 0,0– 0,001 006,2 0,00
01:30 10,69,5 930,0 0,9– 0,001 006,2 0,00
01:35 10,69,5 930,0 0,0– 0,001 006,2 0,00
01:40 10,79,6 930,0 0,0– 0,001 006,2 0,00
01:45 10,99,8 930,0 0,0– 0,001 006,2 0,00
01:50 10,89,6 920,0 0,0– 0,001 006,2 0,00
01:55 10,69,5 930,0 0,0– 0,001 006,2 0,00
02:00 10,69,5 930,0 0,0– 0,001 006,2 0,00
02:05 10,69,5 930,0 0,0– 0,001 006,2 0,00
02:10 10,69,5 930,0 0,0– 0,001 006,2 0,00
02:15 10,49,4 930,0 0,0– 0,001 006,4 0,00
02:20 10,29,1 930,0 0,0– 0,001 006,4 0,00
02:25 10,39,2 930,0 0,0– 0,001 006,4 0,00
02:30 10,19,0 930,0 0,0– 0,001 006,4 0,00
02:35 10,29,2 940,0 0,0– 0,001 006,4 0,00
02:40 10,19,2 940,0 0,0– 0,001 006,4 0,00
02:45 10,19,1 940,0 0,0– 0,001 006,4 0,00
02:50 10,19,2 940,0 0,0– 0,001 006,4 0,00
02:55 9,99,0 940,0 0,0– 0,001 006,4 0,00
03:00 9,99,0 940,0 0,0– 0,001 006,5 0,00
03:05 10,19,1 940,0 0,0– 0,001 006,5 0,00
03:10 10,19,2 940,0 0,0– 0,001 006,5 0,00
03:15 10,09,1 940,0 0,0– 0,001 006,5 0,00
03:20 9,78,8 940,0 0,0– 0,001 006,5 0,00
03:25 9,99,1 950,0 0,0– 0,001 006,5 0,00
03:30 9,99,2 950,0 0,0– 0,001 006,6 0,00
03:35 9,88,9 940,0 0,0– 0,001 006,6 0,00
03:40 9,89,0 950,0 0,0– 0,001 006,6 0,00
03:45 9,68,7 940,0 0,0– 0,001 006,7 0,00
03:50 9,48,6 950,0 0,0– 0,001 006,7 0,00
03:55 9,68,8 950,0 0,0– 0,001 006,7 0,00
04:00 9,48,7 950,0 0,0– 0,001 006,7 0,00
04:05 9,38,6 950,0 0,4– 0,001 006,7 0,00
04:10 9,48,7 950,0 0,0– 0,001 006,7 0,00
04:15 9,68,8 950,0 0,0– 0,001 006,7 0,00
04:20 9,68,7 940,0 0,9– 0,001 006,7 0,00
04:25 9,38,6 950,0 0,0– 0,001 006,7 0,00
04:30 9,48,7 950,0 0,0– 0,001 006,7 0,00
04:35 9,58,7 950,0 0,0– 0,001 006,7 0,00
04:40 9,48,7 950,0 0,0– 0,001 006,7 0,00
04:45 9,38,6 950,0 0,4– 0,001 006,7 0,00
04:50 9,28,5 950,0 0,0– 0,001 006,7 0,00
04:55 9,48,6 950,0 0,0– 0,001 006,7 0,00
05:00 9,48,7 950,0 0,4– 0,001 006,8 0,00
05:05 9,38,6 950,0 0,4– 0,001 006,8 0,00
05:10 9,38,5 950,4 1,3315 0,001 006,8 0,00
05:15 9,28,4 950,0 1,3– 0,001 006,8 0,00
05:20 9,28,4 950,0 0,9– 0,001 006,8 0,00
05:25 9,18,3 950,0 0,0– 0,001 006,8 0,00
05:30 9,18,4 950,0 0,0– 0,001 006,8 0,00
05:35 9,28,5 950,0 0,0– 0,001 006,8 0,00
05:40 9,28,4 950,0 0,0– 0,001 006,8 0,00
05:45 9,18,4 950,0 0,0– 0,001 006,7 0,00
05:50 9,18,5 960,0 0,0– 0,001 006,7 0,00
05:55 9,18,5 960,0 0,0– 0,001 006,7 0,00
06:00 9,18,5 960,0 0,0– 0,001 006,9 0,00
06:05 9,28,6 960,0 0,0– 0,001 006,9 0,00
06:10 9,38,7 960,0 0,0– 0,001 006,9 0,00
06:15 9,38,7 960,0 0,0– 0,001 006,8 0,00
06:20 9,48,8 960,0 0,0– 0,001 006,8 0,00
06:25 9,48,8 960,0 1,3– 0,001 006,8 0,00
06:30 9,58,9 961,3 1,8338 0,001 006,7 0,00
06:35 9,69,0 960,9 1,3338 0,001 006,7 0,05
06:40 9,79,1 960,0 0,9– 0,001 006,7 0,06
06:45 9,68,9 960,0 0,0– 0,001 006,8 0,011
06:50 9,68,8 950,0 0,0– 0,001 006,8 0,015
06:55 9,68,8 950,0 0,0– 0,001 006,8 0,020
07:00 9,68,8 950,0 0,0– 0,001 006,9 0,026
07:05 9,68,8 950,0 0,9– 0,001 006,9 0,026
07:10 9,79,1 960,0 0,4– 0,001 006,9 0,039
07:15 9,89,1 950,4 0,9338 0,001 006,9 0,043
07:20 9,99,2 950,0 0,0– 0,001 006,9 0,045
07:25 10,09,2 950,0 0,0– 0,001 006,9 0,045
07:30 10,19,3 950,0 0,4– 0,001 006,9 0,038
07:35 10,19,3 950,0 0,4– 0,001 006,9 0,034